San Anselmo, CA

12:51 AM PST on February 12, 2016 (GMT -0800)
Country Club | | Change Station
CLOSE
Current Station
Personal Weather Station
Location: San Rafael, CA
Elevation: 331 ft
Nearby Weather Stations

Elev 331 ft 37.98 °N, 122.50 °W | Updated 1 minute ago

Mostly Cloudy
Mostly Cloudy
55.0 °F
Feels Like 55.0 °F
N
0.0
Wind Variable Wind from East
Gusts 0.0 mph

Today
High -- | Low -- °F
--% Chance of Precip.
Yesterday
High -- | Low -- °F
Precip. -- in
Pressure 30.22 in
Visibility 4.0 miles
Clouds Overcast 200 ft
Dew Point 48 °F
Humidity 78%
Rainfall 0.00 in
Snow Depth Not available.
7:03 AM 5:45 PM
Waxing Crescent, 18% visible
METAR KO69 120835Z AUTO 34003KT 4SM OVC002 09/09 A3022 RMK AO1
Pressure 30.22 in
Visibility 4.0 miles
Clouds Overcast 200 ft
Dew Point 48 °F
Humidity 78%
Rainfall 0.00 in
Snow Depth Not available.
7:03 AM 5:45 PM
Waxing Crescent, 18% visible
METAR KO69 120835Z AUTO 34003KT 4SM OVC002 09/09 A3022 RMK AO1

10-Day Weather Forecast

Almanac

Astronomy

Feb. 12, 2016 Rise Set
Actual Time
Civil Twilight
Nautical Twilight
Astronomical Twilight
Moon
Length of Visible Light
Length of Day
Tomorrow will be .
, % of the Moon is Illuminated

Today's Extremes

State Highs State Lows

Community

WunderPhotos

Upload Photos

1,892,284 photos uploaded!

WunderBlog® & News

Nearby

Air Quality

  Air Quality AQ Index Pollutant
Not available.

Snow Depth

Station Depth Elevation

Earthquake Activity

City Distance Mag. Time & Date
Minimum magnitude displayed is 2.5.

Coastal Water Temperatures

Place Temperature

Stations

Nearby Weather Stations

Station Location Temp. Windchill Dew Point Humidity Wind Precip. Elev Updated Type
                   

Watches & Warnings

There are currently no watches in effect.